This is the latest recevied weather packets stored in our database for station/object UR7D-10. If no packets are shown the sender has not sent any weather packets the latest 10 day(s).
| Time | Temp. | Humidity | Pressure | Rain* | Wind** | Luminosity | Snow |
|---|---|---|---|---|---|---|---|
| 1778256654 | 17.78° C | 78% | 1015.8 hPa | 0 mm | - | - | - |
| 1778253051 | 16.11° C | 82% | 1016.5 hPa | 0 mm | - | - | - |
| 1778249448 | 15° C | 86% | 1016.7 hPa | 0 mm | - | - | - |
| 1778245844 | 16.11° C | 85% | 1017.2 hPa | 0.25 mm | - | - | - |
| 1778242241 | 16.67° C | 85% | 1016.9 hPa | 4.83 mm | - | - | - |
| 1778238637 | 18.89° C | 73% | 1016.5 hPa | 0 mm | - | - | - |
| 1778235034 | 19.44° C | 68% | 1016.5 hPa | 0 mm | - | - | - |
| 1778231430 | 18.33° C | 74% | 1016.8 hPa | 0 mm | - | - | - |
| 1778227827 | 17.22° C | 84% | 1016.8 hPa | 0 mm | - | - | - |
| 1778224225 | 15° C | 89% | 1016.6 hPa | 0 mm | - | - | - |
| 1778220620 | 14.44° C | 90% | 1016.2 hPa | 0 mm | - | - | - |
| 1778209810 | 13.33° C | 90% | 1015.1 hPa | 1.02 mm | - | - | - |
| 1778206206 | 13.89° C | 90% | 1015.1 hPa | 0.25 mm | - | - | - |
| 1778202603 | 13.89° C | 90% | 1015.3 hPa | 1.52 mm | - | - | - |
| 1778195396 | 14.44° C | 86% | 1015.5 hPa | 0.76 mm | - | - | - |
| 1778191793 | 13.89° C | 87% | 1015.4 hPa | 0.51 mm | - | - | - |
| 1778188189 | 15° C | 86% | 1015.5 hPa | 1.52 mm | - | - | - |
| 1778184585 | 15.56° C | 84% | 1015.4 hPa | 0 mm | - | - | - |
| 1778180982 | 14.44° C | 86% | 1015.2 hPa | 0 mm | - | - | - |
| 1778177379 | 16.11° C | 77% | 1014.6 hPa | 0 mm | - | - | - |
| 1778170172 | 16.11° C | 85% | 1014.6 hPa | 0.25 mm | - | - | - |
| 1778166568 | 16.67° C | 85% | 1014.8 hPa | 0.51 mm | - | - | - |
| 1778162965 | 16.67° C | 83% | 1015.1 hPa | 0.76 mm | - | - | - |
| 1778159361 | 17.78° C | 77% | 1015.2 hPa | 0.25 mm | - | - | - |
| 1778155758 | 18.33° C | 69% | 1014.6 hPa | 0.25 mm | - | - | - |
* Rain latest hour (hover to see other rain measurements)
** Current wind speed in m/s (hover to see current wind gust speed)